Time;durP1;ratioP1;P1;durP2;ratioP2;P2;SDS_P1;SDS_P2;PMS_P1;PMS_P2;Temp;Humidity;BMP_temperature;BMP_pressure;BME280_temperature;BME280_humidity;BME280_pressure;Samples;Min_cycle;Max_cycle;Signal;HPM_P1;HPM_P2
2022/04/11 00:01:45;;;;;;;;;9.33;8.67;;;27.42;97465.98;;;;117372;1190;25397;-37
2022/04/11 00:04:38;;;;;;;;;10.25;10.25;;;27.40;97468.35;;;;117407;1189;25087;-40
2022/04/11 00:07:21;;;;;;;;;13.75;11.50;;;27.44;97468.00;;;;117343;1187;26059;-39
2022/04/11 00:09:49;;;;;;;;;10.50;9.50;;;27.42;97472.21;;;;117363;1190;25585;-37
2022/04/11 00:12:19;;;;;;;;;9.67;9.67;;;27.42;97475.16;;;;117404;1189;24870;-36
2022/04/11 00:14:49;;;;;;;;;12.00;11.00;;;27.44;97474.20;;;;117410;1189;25507;-39
2022/04/11 00:17:19;;;;;;;;;8.50;8.00;;;27.45;97475.54;;;;117382;1190;25111;-37
2022/04/11 00:19:49;;;;;;;;;14.25;10.25;;;27.48;97472.26;;;;117359;1188;25395;-39
2022/04/11 00:22:23;;;;;;;;;9.75;9.75;;;27.47;97479.25;;;;117375;1189;25586;-37
2022/04/11 00:24:52;;;;;;;;;10.33;10.33;;;27.46;97481.26;;;;117355;1189;25556;-39
2022/04/11 00:27:34;;;;;;;;;15.25;10.00;;;27.48;97486.30;;;;117409;1189;24940;-38
2022/04/11 00:30:06;;;;;;;;;8.67;8.67;;;27.50;97480.95;;;;117368;1189;25838;-36
2022/04/11 00:32:39;;;;;;;;;11.33;11.00;;;27.49;97483.50;;;;117377;1189;24979;-37
2022/04/11 00:35:11;;;;;;;;;10.00;9.33;;;27.51;97493.30;;;;117391;1190;25099;-38
2022/04/11 00:37:42;;;;;;;;;14.50;10.50;;;27.53;97495.23;;;;117371;1190;25330;-39
2022/04/11 00:40:15;;;;;;;;;12.00;10.75;;;27.54;97497.41;;;;117358;1189;25189;-38
2022/04/11 00:42:50;;;;;;;;;13.33;11.33;;;27.55;97497.95;;;;117396;1189;24775;-38
2022/04/11 00:45:23;;;;;;;;;9.00;9.00;;;27.55;97497.74;;;;117414;1189;25307;-40
2022/04/11 00:48:03;;;;;;;;;13.50;11.50;;;27.55;97499.83;;;;117358;1190;25409;-38
2022/04/11 00:50:32;;;;;;;;;11.25;10.75;;;27.55;97502.64;;;;117372;1189;25331;-36
2022/04/11 00:53:02;;;;;;;;;10.25;9.00;;;27.53;97508.66;;;;117404;1189;25513;-39
2022/04/11 00:55:30;;;;;;;;;9.00;9.00;;;27.54;97511.99;;;;117412;1190;25628;-39
2022/04/11 00:58:00;;;;;;;;;13.00;10.25;;;27.55;97515.34;;;;117334;1190;24984;-38
2022/04/11 01:00:31;;;;;;;;;13.00;10.75;;;27.54;97515.98;;;;117383;1189;24934;-37
2022/04/11 01:03:03;;;;;;;;;16.00;9.25;;;27.54;97516.19;;;;117398;1189;25248;-38
2022/04/11 01:05:31;;;;;;;;;8.25;8.00;;;27.54;97518.05;;;;117461;1190;25207;-39
2022/04/11 01:08:06;;;;;;;;;12.25;10.50;;;27.55;97519.77;;;;117414;1188;24830;-39
2022/04/11 01:10:36;;;;;;;;;11.00;10.00;;;27.56;97526.08;;;;117329;1189;25870;-38
2022/04/11 01:13:07;;;;;;;;;11.00;10.25;;;27.54;97536.02;;;;117360;1189;25303;-38
2022/04/11 01:15:38;;;;;;;;;9.50;9.50;;;27.51;97540.98;;;;117344;1189;24872;-36
2022/04/11 01:18:10;;;;;;;;;12.00;9.50;;;27.51;97543.40;;;;117368;1190;25099;-40
2022/04/11 01:20:46;;;;;;;;;8.75;8.75;;;27.50;97545.15;;;;117343;1189;25280;-38
2022/04/11 01:23:18;;;;;;;;;14.00;10.75;;;27.48;97547.42;;;;117330;1190;25653;-36
2022/04/11 01:25:51;;;;;;;;;8.75;7.25;;;27.47;97552.11;;;;117329;1190;25618;-36
2022/04/11 01:28:23;;;;;;;;;13.25;11.00;;;27.46;97557.60;;;;117405;1189;24893;-36
2022/04/11 01:30:52;;;;;;;;;7.75;7.75;;;27.48;97555.92;;;;117525;1187;25688;-37
2022/04/11 01:33:29;;;;;;;;;10.25;9.25;;;27.49;97554.42;;;;117357;1190;24860;-40
2022/04/11 01:35:57;;;;;;;;;12.25;12.25;;;27.47;97554.80;;;;117374;1189;24999;-37
2022/04/11 01:38:27;;;;;;;;;15.25;10.25;;;27.47;97555.92;;;;117327;1190;24854;-39
2022/04/11 01:40:59;;;;;;;;;9.33;9.00;;;27.44;97558.53;;;;117368;1189;25457;-37
2022/04/11 01:43:30;;;;;;;;;10.50;10.50;;;27.43;97561.24;;;;117824;1187;25520;-38
2022/04/11 01:46:05;;;;;;;;;7.67;4.33;;;27.43;97564.11;;;;117350;1190;24927;-37
2022/04/11 01:48:35;;;;;;;;;10.00;8.50;;;27.43;97566.64;;;;117387;1190;24972;-36
2022/04/11 01:51:04;;;;;;;;;11.50;10.00;;;27.42;97569.34;;;;117351;1190;25535;-38
2022/04/11 01:53:44;;;;;;;;;11.25;9.50;;;27.40;97569.18;;;;117369;1190;26040;-36
2022/04/11 01:56:12;;;;;;;;;10.00;10.00;;;27.39;97567.80;;;;117378;1190;25845;-36
2022/04/11 01:58:45;;;;;;;;;7.75;7.25;;;27.37;97571.42;;;;117390;1189;25515;-37
2022/04/11 02:01:40;;;;;;;;;11.00;9.75;;;27.38;97569.86;;;;117414;1189;25245;-38
2022/04/11 02:04:20;;;;;;;;;10.25;10.00;;;27.42;97570.39;;;;117818;1186;24828;-38
2022/04/11 02:06:48;;;;;;;;;8.25;7.50;;;27.39;97577.11;;;;117504;1189;24930;-38
2022/04/11 02:09:15;;;;;;;;;9.75;9.00;;;27.37;97582.17;;;;117486;1188;26682;-39
2022/04/11 02:12:09;;;;;;;;;12.67;10.67;;;27.36;97586.21;;;;117462;1189;25263;-39
2022/04/11 02:14:42;;;;;;;;;9.25;8.50;;;27.37;97587.11;;;;117433;1190;25955;-40
2022/04/11 02:17:34;;;;;;;;;10.00;8.50;;;27.33;97588.45;;;;117428;1190;26271;-37
2022/04/11 02:20:04;;;;;;;;;9.00;9.00;;;27.33;97591.89;;;;117382;1189;25239;-38
2022/04/11 02:22:44;;;;;;;;;8.75;7.25;;;27.32;97592.30;;;;117405;1189;24980;-37
2022/04/11 02:25:27;;;;;;;;;9.00;9.00;;;27.34;97596.76;;;;117411;1189;25560;-40
2022/04/11 02:27:58;;;;;;;;;7.50;6.50;;;27.36;97599.97;;;;117439;1189;25316;-38
2022/04/11 02:30:26;;;;;;;;;9.33;9.00;;;27.37;97602.02;;;;117438;1189;24873;-36
2022/04/11 02:33:19;;;;;;;;;10.33;9.00;;;27.38;97600.89;;;;117383;1190;25693;-38
2022/04/11 02:36:02;;;;;;;;;8.00;6.25;;;27.41;97603.77;;;;117823;1186;25095;-37
2022/04/11 02:38:30;;;;;;;;;11.25;11.25;;;27.39;97604.13;;;;117454;1189;25572;-37
2022/04/11 02:41:01;;;;;;;;;9.00;9.00;;;27.39;97607.98;;;;117367;1189;26342;-38
2022/04/11 02:43:29;;;;;;;;;10.50;7.75;;;27.40;97610.93;;;;117357;1189;25394;-36
2022/04/11 02:46:00;;;;;;;;;7.25;6.50;;;27.40;97608.43;;;;117359;1189;25584;-39
2022/04/11 02:48:31;;;;;;;;;9.75;7.50;;;27.39;97609.33;;;;117356;1188;25278;-37
2022/04/11 02:50:59;;;;;;;;;11.33;10.33;;;27.38;97611.70;;;;117408;1190;25691;-38
2022/04/11 02:53:27;;;;;;;;;7.50;6.25;;;27.41;97617.30;;;;117891;1187;25689;-38
2022/04/11 02:55:55;;;;;;;;;8.67;8.67;;;27.41;97621.16;;;;117914;1186;25489;-38
2022/04/11 02:58:29;;;;;;;;;8.00;6.00;;;27.43;97617.60;;;;117853;1187;24734;-38
2022/04/11 03:01:23;;;;;;;;;12.67;9.67;;;27.43;97618.13;;;;117893;1188;25071;-38
2022/04/11 03:03:51;;;;;;;;;9.00;9.00;;;27.46;97618.11;;;;117853;1186;25514;-38
2022/04/11 03:06:45;;;;;;;;;9.50;8.75;;;27.42;97615.62;;;;117821;1187;26537;-39
2022/04/11 03:09:13;;;;;;;;;10.50;9.00;;;27.44;97614.27;;;;117815;1188;25453;-37
2022/04/11 03:12:07;;;;;;;;;9.00;7.75;;;27.41;97614.35;;;;117866;1186;25242;-36
2022/04/11 03:14:49;;;;;;;;;7.00;7.00;;;27.46;97621.45;;;;117840;1188;24969;-36
2022/04/11 03:17:17;;;;;;;;;4.00;3.33;;;27.42;97624.16;;;;117815;1188;25375;-39
2022/04/11 03:19:45;;;;;;;;;10.00;7.00;;;27.40;97625.38;;;;117821;1187;25338;-36
2022/04/11 03:22:37;;;;;;;;;7.67;5.67;;;27.39;97626.52;;;;117842;1187;24877;-38
2022/04/11 03:25:06;;;;;;;;;8.00;8.00;;;27.39;97628.65;;;;117614;1188;26675;-38
2022/04/11 03:27:35;;;;;;;;;9.00;7.25;;;27.37;97631.61;;;;117454;1188;25163;-38
2022/04/11 03:30:06;;;;;;;;;8.75;7.00;;;27.39;97630.61;;;;117426;1189;24942;-40
2022/04/11 03:32:38;;;;;;;;;9.00;7.50;;;27.39;97638.71;;;;117407;1189;24741;-38
2022/04/11 03:35:09;;;;;;;;;11.00;9.00;;;27.37;97638.08;;;;117394;1189;25315;-38
2022/04/11 03:37:41;;;;;;;;;8.67;8.00;;;27.35;97636.93;;;;118090;1182;25498;-37
2022/04/11 03:40:12;;;;;;;;;7.00;5.25;;;27.51;97636.36;;;;117700;1187;25738;-38
2022/04/11 03:42:41;;;;;;;;;9.25;8.00;;;27.57;97634.38;;;;118094;1188;26014;-38
2022/04/11 03:45:11;;;;;;;;;5.25;3.75;;;27.65;97639.94;;;;117855;1187;25489;-38
2022/04/11 03:47:42;;;;;;;;;8.00;8.00;;;27.66;97643.26;;;;117966;1187;25133;-36
2022/04/11 03:50:13;;;;;;;;;8.50;7.50;;;27.75;97650.39;;;;117878;1187;24784;-37
2022/04/11 03:52:44;;;;;;;;;8.00;8.00;;;27.76;97657.45;;;;117839;1187;25627;-35
2022/04/11 03:55:11;;;;;;;;;8.75;8.00;;;27.73;97655.80;;;;117879;1187;25316;-37
2022/04/11 03:57:44;;;;;;;;;10.00;6.75;;;27.72;97663.67;;;;117570;1188;24979;-40
2022/04/11 04:00:13;;;;;;;;;10.50;8.75;;;27.74;97667.85;;;;117308;1190;25378;-36
2022/04/11 04:02:44;;;;;;;;;7.00;6.67;;;27.71;97670.45;;;;117925;1187;25475;-40
2022/04/11 04:05:12;;;;;;;;;15.50;10.25;;;27.74;97674.63;;;;117856;1187;24898;-37
2022/04/11 04:07:42;;;;;;;;;8.25;6.50;;;27.75;97676.09;;;;117295;1188;25725;-35
2022/04/11 04:10:10;;;;;;;;;17.25;9.00;;;27.73;97680.59;;;;117838;1187;24753;-41
2022/04/11 04:13:00;;;;;;;;;29.25;15.25;;;27.72;97684.20;;;;117960;1186;25169;-35
2022/04/11 04:15:28;;;;;;;;;18.25;13.75;;;27.87;97684.87;;;;117844;1188;24948;-39
2022/04/11 04:17:57;;;;;;;;;13.25;9.75;;;27.90;97687.13;;;;117480;1190;25460;-44
2022/04/11 04:20:26;;;;;;;;;14.33;11.33;;;27.60;97690.64;;;;117809;1187;24869;-38
2022/04/11 04:22:54;;;;;;;;;16.25;11.25;;;27.51;97690.02;;;;117869;1187;25380;-37
2022/04/11 04:25:28;;;;;;;;;15.00;10.33;;;27.32;97693.29;;;;117839;1187;24924;-36
2022/04/11 04:27:55;;;;;;;;;14.50;12.25;;;27.16;97706.92;;;;117839;1187;25170;-34
2022/04/11 04:30:23;;;;;;;;;15.00;11.67;;;27.07;97707.66;;;;117868;1188;25654;-37
2022/04/11 04:32:52;;;;;;;;;13.00;10.50;;;26.90;97712.13;;;;117583;1188;25712;-36
2022/04/11 04:35:19;;;;;;;;;18.25;12.00;;;26.58;97716.74;;;;117566;1188;25116;-35
2022/04/11 04:37:47;;;;;;;;;15.33;12.00;;;26.39;97718.48;;;;117814;1187;25493;-39
2022/04/11 04:40:15;;;;;;;;;8.50;8.50;;;26.22;97717.68;;;;117560;1189;25316;-35
2022/04/11 04:42:43;;;;;;;;;11.50;9.50;;;26.01;97722.18;;;;117576;1188;25193;-33
2022/04/11 04:45:12;;;;;;;;;8.75;8.00;;;25.77;97723.91;;;;117689;1188;24975;-35
2022/04/11 04:47:40;;;;;;;;;9.50;8.50;;;25.56;97722.10;;;;117549;1188;25622;-37
2022/04/11 04:50:09;;;;;;;;;11.00;8.00;;;25.47;97723.11;;;;117357;1190;24743;-35
2022/04/11 04:52:38;;;;;;;;;11.00;9.75;;;25.30;97727.45;;;;117348;1190;25548;-34
2022/04/11 04:55:07;;;;;;;;;11.33;10.00;;;25.11;97729.69;;;;117541;1187;25600;-38
2022/04/11 04:57:38;;;;;;;;;12.00;11.00;;;24.98;97737.14;;;;117689;1188;25450;-36
2022/04/11 05:00:07;;;;;;;;;11.00;11.00;;;24.90;97739.02;;;;117584;1188;25674;-38
2022/04/11 05:02:36;;;;;;;;;13.50;13.50;;;24.75;97740.80;;;;117742;1188;25583;-37
2022/04/11 05:05:09;;;;;;;;;14.00;13.50;;;24.69;97744.73;;;;117593;1188;25500;-38
2022/04/11 05:07:37;;;;;;;;;10.25;10.25;;;23.99;97743.09;;;;117643;1189;25402;-37
2022/04/11 05:10:09;;;;;;;;;11.67;10.00;;;24.04;97744.73;;;;117549;1187;24706;-38
2022/04/11 05:12:44;;;;;;;;;11.67;10.33;;;23.96;97748.43;;;;117435;1189;24922;-36
2022/04/11 05:15:13;;;;;;;;;14.00;10.50;;;23.82;97743.92;;;;117612;1186;25686;-36
2022/04/11 05:17:41;;;;;;;;;14.00;11.33;;;23.70;97747.67;;;;117728;1187;25146;-33
2022/04/11 05:20:10;;;;;;;;;11.33;10.33;;;23.15;97751.55;;;;117755;1188;25631;-34
2022/04/11 05:22:38;;;;;;;;;10.33;8.33;;;22.89;97753.46;;;;117569;1188;25161;-35
2022/04/11 05:25:07;;;;;;;;;9.00;6.33;;;22.95;97751.73;;;;117686;1188;25283;-37
2022/04/11 05:27:34;;;;;;;;;13.00;9.00;;;22.44;97755.21;;;;117558;1188;25255;-35
2022/04/11 05:30:05;;;;;;;;;12.33;10.33;;;22.58;97753.86;;;;117588;1188;24766;-37
2022/04/11 05:32:33;;;;;;;;;16.33;11.00;;;22.53;97748.11;;;;117588;1188;25379;-36
2022/04/11 05:35:01;;;;;;;;;12.67;11.33;;;22.31;97749.77;;;;117569;1188;25444;-35
2022/04/11 05:37:29;;;;;;;;;16.00;9.33;;;22.10;97750.37;;;;117476;1189;25938;-36
2022/04/11 05:39:57;;;;;;;;;17.67;11.33;;;22.12;97752.80;;;;117322;1190;25421;-32
2022/04/11 05:42:25;;;;;;;;;16.33;11.00;;;21.82;97758.44;;;;117378;1189;24955;-41
2022/04/11 05:44:52;;;;;;;;;10.33;10.00;;;21.83;97754.27;;;;117484;1188;26196;-35
2022/04/11 05:47:20;;;;;;;;;12.00;12.00;;;21.67;97752.11;;;;117322;1190;25266;-34
2022/04/11 05:49:48;;;;;;;;;12.67;12.33;;;21.67;97756.08;;;;117380;1188;25309;-37
2022/04/11 05:52:16;;;;;;;;;14.67;11.00;;;21.02;97752.09;;;;117369;1188;25726;-33
2022/04/11 05:54:44;;;;;;;;;15.33;12.33;;;21.26;97748.49;;;;117331;1190;24719;-35
2022/04/11 05:57:13;;;;;;;;;13.00;12.67;;;21.31;97751.83;;;;117474;1189;26209;-34
2022/04/11 05:59:41;;;;;;;;;15.67;11.33;;;21.05;97756.40;;;;117387;1189;25805;-35
2022/04/11 06:02:11;;;;;;;;;14.00;12.67;;;20.88;97752.83;;;;117391;1188;25188;-35
2022/04/11 06:04:39;;;;;;;;;12.00;12.00;;;20.62;97752.09;;;;117688;1188;25981;-39
2022/04/11 06:07:08;;;;;;;;;11.67;10.67;;;20.55;97752.23;;;;117711;1188;24859;-34
2022/04/11 06:09:36;;;;;;;;;14.67;11.33;;;20.61;97752.64;;;;117752;1188;25175;-35
2022/04/11 06:12:04;;;;;;;;;12.00;9.33;;;20.86;97748.29;;;;117346;1189;26383;-35
2022/04/11 06:14:32;;;;;;;;;13.00;10.67;;;20.80;97747.30;;;;117429;1190;25050;-33
2022/04/11 06:17:00;;;;;;;;;10.67;10.00;;;20.88;97748.76;;;;117379;1189;25796;-38
2022/04/11 06:19:32;;;;;;;;;14.00;9.67;;;21.00;97748.40;;;;117496;1188;25191;-35
2022/04/11 06:22:05;;;;;;;;;12.33;8.33;;;21.11;97756.94;;;;117444;1190;24930;-33
2022/04/11 06:24:40;;;;;;;;;10.00;9.00;;;21.26;97751.74;;;;117382;1190;24750;-33
2022/04/11 06:27:07;;;;;;;;;12.00;10.33;;;21.36;97754.80;;;;117332;1190;25519;-34
2022/04/11 06:29:48;;;;;;;;;11.33;10.00;;;21.45;97758.35;;;;117372;1189;26074;-34
2022/04/11 06:32:15;;;;;;;;;12.67;9.67;;;21.47;97762.23;;;;117528;1187;26168;-38
2022/04/11 06:34:43;;;;;;;;;13.00;9.00;;;21.54;97763.45;;;;117732;1188;25152;-34
2022/04/11 06:37:13;;;;;;;;;10.33;9.67;;;21.64;97771.79;;;;117583;1188;24860;-35
2022/04/11 06:39:44;;;;;;;;;11.33;9.33;;;21.72;97770.02;;;;117881;1188;25287;-35
2022/04/11 06:42:13;;;;;;;;;10.00;9.67;;;21.79;97776.98;;;;117841;1186;25224;-36
2022/04/11 06:44:44;;;;;;;;;8.00;8.00;;;21.86;97771.11;;;;117781;1188;25113;-38
2022/04/11 06:47:12;;;;;;;;;10.50;9.00;;;21.93;97770.18;;;;117746;1187;25706;-32
2022/04/11 06:49:44;;;;;;;;;10.67;7.67;;;22.04;97775.98;;;;117804;1188;24934;-34
2022/04/11 06:52:17;;;;;;;;;9.67;8.33;;;22.09;97773.77;;;;117776;1188;25169;-35
2022/04/11 06:54:48;;;;;;;;;9.67;8.33;;;22.15;97774.66;;;;117964;1187;25513;-33
2022/04/11 06:57:16;;;;;;;;;12.00;9.33;;;22.26;97775.21;;;;117822;1186;25622;-33
2022/04/11 06:59:44;;;;;;;;;13.00;8.00;;;22.36;97774.11;;;;117938;1188;25193;-35
2022/04/11 07:02:17;;;;;;;;;11.50;9.50;;;22.51;97771.65;;;;117805;1186;25351;-34
2022/04/11 07:04:50;;;;;;;;;12.33;9.33;;;22.62;97775.21;;;;117816;1188;25026;-37
2022/04/11 07:07:19;;;;;;;;;14.67;10.33;;;22.76;97777.36;;;;117817;1187;25425;-35
2022/04/11 07:09:47;;;;;;;;;13.00;9.50;;;22.87;97777.42;;;;117898;1186;24990;-42
2022/04/11 07:12:17;;;;;;;;;14.33;14.00;;;22.99;97775.44;;;;117874;1187;24679;-36
2022/04/11 07:14:54;;;;;;;;;13.33;9.33;;;23.14;97779.30;;;;117790;1187;24987;-37
2022/04/11 07:17:28;;;;;;;;;9.67;7.00;;;23.27;97779.23;;;;117947;1188;24999;-34
2022/04/11 07:19:56;;;;;;;;;14.33;12.00;;;23.41;97779.38;;;;117812;1188;25117;-35
2022/04/11 07:22:38;;;;;;;;;15.33;9.67;;;23.55;97778.35;;;;117764;1188;25559;-36
2022/04/11 07:25:08;;;;;;;;;12.75;9.75;;;23.64;97780.30;;;;117861;1188;25648;-35
2022/04/11 07:27:36;;;;;;;;;12.00;8.00;;;23.71;97784.58;;;;117865;1186;25040;-35
2022/04/11 07:30:06;;;;;;;;;12.50;11.50;;;23.79;97783.98;;;;117894;1187;25341;-39
2022/04/11 07:32:38;;;;;;;;;11.50;10.00;;;23.88;97789.16;;;;117975;1187;25351;-36
2022/04/11 07:35:07;;;;;;;;;10.67;9.67;;;24.00;97790.70;;;;117930;1187;24930;-39
2022/04/11 07:37:36;;;;;;;;;11.67;9.00;;;24.10;97794.20;;;;117721;1188;24987;-36
2022/04/11 07:40:07;;;;;;;;;8.67;8.00;;;24.17;97789.47;;;;117733;1187;25674;-39
2022/04/11 07:42:36;;;;;;;;;13.33;9.00;;;24.24;97795.30;;;;117703;1188;24993;-35
2022/04/11 07:45:06;;;;;;;;;8.33;8.33;;;24.32;97797.02;;;;117759;1187;25412;-40
2022/04/11 07:47:38;;;;;;;;;9.33;8.33;;;24.37;97791.33;;;;117854;1188;25105;-38
2022/04/11 07:50:09;;;;;;;;;10.00;9.00;;;24.45;97796.30;;;;117748;1186;25103;-36
2022/04/11 07:52:41;;;;;;;;;13.00;11.67;;;24.51;97800.35;;;;117793;1188;24864;-34
2022/04/11 07:55:12;;;;;;;;;11.00;10.00;;;24.59;97808.77;;;;117751;1188;24764;-36
2022/04/11 07:57:42;;;;;;;;;13.75;9.75;;;24.66;97807.31;;;;117773;1188;24861;-36
2022/04/11 08:00:21;;;;;;;;;9.00;8.25;;;24.75;97808.14;;;;117923;1188;24789;-37
2022/04/11 08:02:53;;;;;;;;;13.33;8.00;;;24.86;97809.66;;;;117782;1188;25679;-36
2022/04/11 08:05:24;;;;;;;;;11.50;10.00;;;24.90;97810.30;;;;117774;1188;25520;-35
2022/04/11 08:07:55;;;;;;;;;10.00;9.67;;;24.96;97803.67;;;;117776;1189;25144;-38
2022/04/11 08:10:22;;;;;;;;;12.50;11.25;;;25.01;97806.49;;;;117897;1188;25924;-38
2022/04/11 08:12:58;;;;;;;;;10.67;10.00;;;25.05;97810.30;;;;117714;1187;25310;-36
2022/04/11 08:15:33;;;;;;;;;10.00;10.00;;;25.13;97813.51;;;;117775;1187;26349;-35
2022/04/11 08:18:10;;;;;;;;;11.00;9.33;;;25.18;97809.65;;;;118364;1188;25049;-37
2022/04/11 08:20:47;;;;;;;;;11.33;9.00;;;25.45;97820.02;;;;117745;1186;25719;-35
2022/04/11 08:23:20;;;;;;;;;9.33;8.67;;;25.39;97818.56;;;;117832;1187;25328;-37
2022/04/11 08:25:52;;;;;;;;;13.50;9.75;;;25.42;97816.41;;;;117915;1187;25063;-37
2022/04/11 08:28:21;;;;;;;;;10.25;9.75;;;25.48;97815.02;;;;117883;1186;25442;-36
2022/04/11 08:30:50;;;;;;;;;11.00;8.50;;;25.50;97814.86;;;;117666;1189;25379;-37
2022/04/11 08:33:20;;;;;;;;;11.50;10.50;;;25.54;97804.98;;;;117774;1188;24906;-38
2022/04/11 08:35:52;;;;;;;;;13.25;9.50;;;25.53;97816.04;;;;117710;1188;25417;-37
2022/04/11 08:38:30;;;;;;;;;9.67;8.33;;;25.52;97811.73;;;;117722;1189;25379;-37
2022/04/11 08:41:02;;;;;;;;;11.50;9.00;;;25.60;97811.87;;;;117484;1188;26025;-37
2022/04/11 08:43:37;;;;;;;;;7.67;6.33;;;25.55;97810.91;;;;117740;1189;25520;-38
2022/04/11 08:46:06;;;;;;;;;12.25;10.50;;;25.62;97806.95;;;;117493;1189;26251;-34
2022/04/11 08:48:35;;;;;;;;;13.67;10.00;;;25.62;97806.77;;;;117609;1188;25631;-39
2022/04/11 08:51:11;;;;;;;;;13.00;8.67;;;25.61;97808.07;;;;117657;1188;25389;-36
2022/04/11 08:53:42;;;;;;;;;12.00;10.67;;;25.63;97812.80;;;;117683;1188;25157;-35
2022/04/11 08:56:13;;;;;;;;;16.75;11.75;;;25.67;97803.19;;;;117515;1190;24834;-40
2022/04/11 08:58:41;;;;;;;;;11.00;9.25;;;25.69;97798.70;;;;117572;1188;25787;-36
2022/04/11 09:01:11;;;;;;;;;8.67;8.33;;;25.71;97819.35;;;;117755;1188;24875;-36
2022/04/11 09:03:42;;;;;;;;;11.00;8.33;;;25.77;97808.86;;;;117578;1188;24886;-35
2022/04/11 09:06:13;;;;;;;;;12.25;10.50;;;25.78;97812.58;;;;117471;1190;25832;-35
2022/04/11 09:09:02;;;;;;;;;11.00;9.00;;;25.81;97804.98;;;;117563;1188;25498;-36
2022/04/11 09:11:39;;;;;;;;;11.75;11.75;;;25.96;97806.70;;;;117644;1187;24945;-36
2022/04/11 09:14:07;;;;;;;;;11.75;11.00;;;25.97;97805.84;;;;117697;1188;25501;-37
2022/04/11 09:16:43;;;;;;;;;11.00;11.00;;;25.95;97805.28;;;;117625;1188;25240;-39
2022/04/11 09:19:27;;;;;;;;;13.67;10.00;;;25.96;97805.59;;;;117574;1189;25054;-35
2022/04/11 09:22:30;;;;;;;;;8.50;8.50;;;26.12;97802.30;;;;117868;1189;25234;-35
2022/04/11 09:25:08;;;;;;;;;11.25;9.25;;;26.20;97801.14;;;;117692;1187;25872;-37
2022/04/11 09:27:36;;;;;;;;;13.25;11.50;;;26.22;97804.69;;;;117593;1186;25186;-38
2022/04/11 09:30:22;;;;;;;;;10.50;8.50;;;26.17;97801.05;;;;117749;1188;25644;-36
2022/04/11 09:33:05;;;;;;;;;7.00;7.00;;;26.21;97807.28;;;;117579;1189;25768;-36
2022/04/11 09:35:38;;;;;;;;;9.00;9.00;;;26.20;97807.19;;;;117546;1188;25409;-36
2022/04/11 09:38:08;;;;;;;;;4.75;4.75;;;26.15;97808.05;;;;117861;1186;25484;-37
2022/04/11 09:41:06;;;;;;;;;7.25;6.25;;;26.14;97793.83;;;;117870;1186;24976;-37
2022/04/11 09:43:37;;;;;;;;;9.75;8.00;;;26.28;97807.29;;;;117978;1188;24712;-38
2022/04/11 09:46:04;;;;;;;;;8.25;8.25;;;26.32;97807.38;;;;118023;1187;24926;-35
2022/04/11 09:48:36;;;;;;;;;8.00;7.00;;;26.30;97804.91;;;;118105;1188;24913;-38
2022/04/11 09:51:13;;;;;;;;;12.33;8.33;;;26.31;97801.27;;;;118019;1186;25341;-36
2022/04/11 09:53:42;;;;;;;;;12.00;9.00;;;26.37;97802.08;;;;117708;1188;24830;-37
2022/04/11 09:56:10;;;;;;;;;9.75;9.50;;;26.31;97802.20;;;;117906;1187;25099;-36
2022/04/11 09:58:40;;;;;;;;;9.00;9.00;;;26.25;97803.55;;;;117945;1187;25007;-36
2022/04/11 10:01:08;;;;;;;;;15.00;11.00;;;26.22;97817.77;;;;118204;1186;25146;-43
2022/04/11 10:03:38;;;;;;;;;16.00;12.00;;;26.31;97809.88;;;;118190;1188;25332;-36
2022/04/11 10:06:06;;;;;;;;;11.00;11.00;;;26.35;97804.16;;;;118027;1188;25505;-36
2022/04/11 10:08:34;;;;;;;;;14.75;13.25;;;26.27;97811.27;;;;117844;1187;25272;-37
2022/04/11 10:11:04;;;;;;;;;11.75;11.50;;;26.18;97809.52;;;;118102;1188;25214;-36
2022/04/11 10:13:34;;;;;;;;;11.75;9.25;;;26.21;97816.92;;;;117898;1188;25113;-37
2022/04/11 10:16:03;;;;;;;;;14.50;12.50;;;26.17;97815.13;;;;117845;1187;25164;-34
2022/04/11 10:18:30;;;;;;;;;10.33;8.00;;;26.13;97809.49;;;;117842;1186;25375;-37
2022/04/11 10:21:02;;;;;;;;;12.00;9.67;;;26.07;97817.56;;;;117801;1188;25586;-36
2022/04/11 10:24:04;;;;;;;;;16.25;12.25;;;26.10;97810.91;;;;117806;1186;25713;-36
2022/04/11 10:26:46;;;;;;;;;14.00;12.00;;;26.12;97807.27;;;;118026;1186;25744;-38
2022/04/11 10:29:30;;;;;;;;;11.50;9.50;;;26.15;97799.34;;;;117975;1187;25030;-35
2022/04/11 10:32:16;;;;;;;;;9.00;7.00;;;26.14;97804.42;;;;117826;1188;25689;-37
2022/04/11 10:34:56;;;;;;;;;11.25;8.75;;;26.08;97796.34;;;;117964;1186;25001;-39
2022/04/11 10:37:26;;;;;;;;;11.50;11.00;;;26.14;97804.67;;;;117864;1188;25038;-38
2022/04/11 10:40:17;;;;;;;;;10.00;8.67;;;26.08;97797.08;;;;117801;1187;26437;-37
2022/04/11 10:43:04;;;;;;;;;16.33;12.67;;;26.15;97796.42;;;;117767;1188;25661;-38
2022/04/11 10:45:42;;;;;;;;;15.75;11.75;;;26.14;97799.34;;;;117799;1186;25406;-37
2022/04/11 10:48:12;;;;;;;;;10.25;10.25;;;26.08;97797.58;;;;117800;1188;25525;-37
2022/04/11 10:50:41;;;;;;;;;11.00;8.75;;;26.05;97806.40;;;;117788;1188;25133;-37
2022/04/11 10:53:24;;;;;;;;;11.33;9.67;;;26.04;97796.21;;;;117734;1188;25173;-38
2022/04/11 10:55:54;;;;;;;;;12.00;11.67;;;26.03;97799.73;;;;117763;1186;24953;-37
2022/04/11 10:58:39;;;;;;;;;12.00;9.67;;;26.01;97807.34;;;;117785;1188;25621;-38
2022/04/11 11:01:08;;;;;;;;;11.75;10.25;;;26.07;97808.23;;;;117791;1188;24874;-36
2022/04/11 11:03:40;;;;;;;;;13.00;11.00;;;26.07;97809.98;;;;117855;1188;25117;-37
2022/04/11 11:06:28;;;;;;;;;14.75;10.75;;;26.15;97801.65;;;;117760;1188;26336;-36
2022/04/11 11:09:14;;;;;;;;;14.75;11.25;;;26.13;97800.19;;;;117356;1190;25626;-38
2022/04/11 11:11:42;;;;;;;;;11.75;9.50;;;26.15;97801.24;;;;117732;1188;25021;-37
2022/04/11 11:14:42;;;;;;;;;13.50;12.25;;;26.14;97805.92;;;;117865;1188;24876;-37
2022/04/11 11:17:10;;;;;;;;;9.75;9.50;;;26.23;97803.56;;;;117806;1188;24852;-38
2022/04/11 11:20:16;;;;;;;;;13.00;10.25;;;26.15;97815.27;;;;117834;1188;25342;-36
2022/04/11 11:23:14;;;;;;;;;6.75;6.75;;;26.23;97814.30;;;;117069;1193;25866;-36
2022/04/11 11:25:42;;;;;;;;;13.00;11.00;;;26.25;97807.29;;;;117066;1192;24738;-35
2022/04/11 11:28:13;;;;;;;;;11.33;11.33;;;26.19;97803.66;;;;117504;1188;25122;-35
2022/04/11 11:30:42;;;;;;;;;9.50;9.50;;;26.14;97803.27;;;;117762;1188;25490;-36
2022/04/11 11:33:14;;;;;;;;;9.75;7.00;;;26.11;97805.49;;;;117822;1187;24782;-37
2022/04/11 11:35:52;;;;;;;;;12.75;9.00;;;26.10;97798.27;;;;117790;1187;25446;-36
2022/04/11 11:38:23;;;;;;;;;11.25;11.25;;;26.11;97810.73;;;;117822;1187;24981;-37
2022/04/11 11:40:59;;;;;;;;;10.75;9.25;;;26.11;97807.55;;;;117778;1186;24831;-36
2022/04/11 11:43:29;;;;;;;;;8.25;8.25;;;26.12;97810.86;;;;117775;1186;24704;-35
2022/04/11 11:46:01;;;;;;;;;10.25;8.50;;;26.12;97810.07;;;;117830;1186;24994;-36
2022/04/11 11:48:31;;;;;;;;;12.25;12.25;;;26.15;97812.31;;;;117793;1187;24808;-36
2022/04/11 11:51:01;;;;;;;;;15.50;10.75;;;26.14;97805.03;;;;117759;1188;25668;-37
2022/04/11 11:53:43;;;;;;;;;13.25;9.00;;;26.15;97808.17;;;;117812;1187;25274;-36
2022/04/11 11:56:12;;;;;;;;;13.75;10.25;;;26.17;97807.21;;;;117808;1187;25124;-36
2022/04/11 11:58:40;;;;;;;;;12.33;11.00;;;26.16;97798.02;;;;117772;1188;24778;-37
2022/04/11 12:01:13;;;;;;;;;13.33;9.33;;;26.17;97793.17;;;;117764;1188;24807;-36
2022/04/11 12:06:34;;;;;;;;;8.00;7.00;;;26.31;97792.63;;;;117764;1188;24889;-35
2022/04/11 12:09:03;;;;;;;;;9.25;7.50;;;26.29;97792.67;;;;117914;1186;25835;-36
2022/04/11 12:11:32;;;;;;;;;10.50;9.00;;;26.34;97794.15;;;;117773;1188;25736;-36
2022/04/11 12:14:05;;;;;;;;;11.33;11.00;;;26.36;97792.13;;;;117868;1187;25464;-36
2022/04/11 12:16:35;;;;;;;;;15.33;11.33;;;26.37;97798.33;;;;117764;1188;25508;-36
2022/04/11 12:19:05;;;;;;;;;11.00;9.50;;;26.41;97791.02;;;;117806;1188;24815;-36
2022/04/11 12:21:38;;;;;;;;;8.33;8.33;;;26.43;97796.99;;;;117820;1187;25543;-35
2022/04/11 12:24:09;;;;;;;;;8.75;8.75;;;26.45;97786.60;;;;117790;1186;26449;-37
2022/04/11 12:26:46;;;;;;;;;11.50;10.25;;;26.49;97785.83;;;;117827;1186;25587;-37
2022/04/11 12:29:16;;;;;;;;;10.00;10.00;;;26.56;97784.32;;;;117829;1187;24942;-37